createdAt,value
2018-04-26T00:01:42.862Z,95173.33
2018-04-26T00:04:09.885Z,95170.78
2018-04-26T00:06:38.642Z,95171.92
2018-04-26T00:09:06.003Z,95173.12
2018-04-26T00:11:33.360Z,95165.81
2018-04-26T00:14:00.084Z,95170.47
2018-04-26T00:16:27.768Z,95170.58
2018-04-26T00:18:54.945Z,95165.30
2018-04-26T00:21:21.910Z,95161.11
2018-04-26T00:23:49.307Z,95161.80
2018-04-26T00:26:18.351Z,95157.84
2018-04-26T00:28:45.140Z,95162.00
2018-04-26T00:31:12.269Z,95160.30
2018-04-26T00:33:39.554Z,95155.42
2018-04-26T00:36:08.793Z,95151.41
2018-04-26T00:38:35.956Z,95156.00
2018-04-26T00:41:03.574Z,95157.22
2018-04-26T00:43:31.254Z,95154.05
2018-04-26T00:45:59.324Z,95152.44
2018-04-26T00:48:27.334Z,95154.73
2018-04-26T00:50:54.584Z,95152.91
2018-04-26T00:53:22.065Z,95148.81
2018-04-26T00:55:51.215Z,95147.41
2018-04-26T00:58:18.421Z,95150.69
2018-04-26T01:00:45.533Z,95151.09
2018-04-26T01:03:14.065Z,95155.23
2018-04-26T01:05:41.048Z,95159.06
2018-04-26T01:08:09.023Z,95155.54
2018-04-26T01:10:36.884Z,95159.42
2018-04-26T01:13:04.086Z,95157.88
2018-04-26T01:15:32.349Z,95152.19
2018-04-26T01:18:01.049Z,95157.57
2018-04-26T01:20:28.403Z,95156.30
2018-04-26T01:22:54.917Z,95158.23
2018-04-26T01:25:21.613Z,95156.98
2018-04-26T01:27:48.574Z,95157.70
2018-04-26T01:30:15.158Z,95157.62
2018-04-26T01:32:43.551Z,95158.33
2018-04-26T01:35:11.030Z,95154.70
2018-04-26T01:37:44.140Z,95150.41
2018-04-26T01:40:11.052Z,95150.39
2018-04-26T01:42:38.750Z,95149.06
2018-04-26T01:45:06.492Z,95152.98
2018-04-26T01:47:34.468Z,95150.31
2018-04-26T01:50:02.065Z,95144.06
2018-04-26T01:52:30.197Z,95145.39
2018-04-26T01:54:57.447Z,95143.81
2018-04-26T01:57:25.052Z,95145.40
2018-04-26T01:59:52.793Z,95145.91
2018-04-26T02:02:20.995Z,95146.45
2018-04-26T02:04:48.556Z,95145.17
2018-04-26T02:07:15.411Z,95145.98
2018-04-26T02:09:42.944Z,95147.84
2018-04-26T02:12:11.894Z,95151.39
2018-04-26T02:14:38.585Z,95147.73
2018-04-26T02:17:06.429Z,95144.39
2018-04-26T02:19:33.643Z,95148.41
2018-04-26T02:22:01.087Z,95149.30
2018-04-26T02:24:29.715Z,95150.88
2018-04-26T02:26:56.696Z,95146.45
2018-04-26T02:29:23.729Z,95149.97
2018-04-26T02:31:50.771Z,95148.41
2018-04-26T02:34:18.856Z,95151.02
2018-04-26T02:36:45.800Z,95151.02
2018-04-26T02:39:12.626Z,95148.78
2018-04-26T02:41:39.399Z,95148.84
2018-04-26T02:44:06.057Z,95149.72
2018-04-26T02:46:33.537Z,95151.75
2018-04-26T02:49:00.438Z,95149.11
2018-04-26T02:51:28.045Z,95150.30
2018-04-26T02:53:55.577Z,95149.17
2018-04-26T02:56:22.512Z,95149.75
2018-04-26T02:58:49.775Z,95148.73
2018-04-26T03:01:17.625Z,95151.30
2018-04-26T03:03:44.756Z,95149.44
2018-04-26T03:06:14.007Z,95159.20
2018-04-26T03:08:41.193Z,95166.07
2018-04-26T03:11:08.877Z,95161.98
2018-04-26T03:13:35.459Z,95160.63
2018-04-26T03:16:03.595Z,95157.23
2018-04-26T03:18:31.107Z,95169.95
2018-04-26T03:20:59.550Z,95167.77
2018-04-26T03:23:26.777Z,95168.94
2018-04-26T03:25:53.717Z,95169.76
2018-04-26T03:28:20.529Z,95168.73
2018-04-26T03:30:47.684Z,95164.39
2018-04-26T03:33:15.952Z,95167.86
2018-04-26T03:35:43.278Z,95167.11
2018-04-26T03:38:11.083Z,95170.46
2018-04-26T03:40:38.681Z,95173.16
2018-04-26T03:43:07.181Z,95176.55
2018-04-26T03:45:34.024Z,95179.33
2018-04-26T03:48:01.597Z,95179.84
2018-04-26T03:50:28.478Z,95180.81
2018-04-26T03:52:55.562Z,95177.52
2018-04-26T03:55:22.899Z,95186.32
2018-04-26T03:57:50.617Z,95182.08
2018-04-26T04:00:29.439Z,95181.82
2018-04-26T04:03:08.087Z,95183.99
2018-04-26T04:05:47.309Z,95186.98
2018-04-26T04:08:14.247Z,95187.95
2018-04-26T04:10:41.476Z,95192.50
2018-04-26T04:13:08.235Z,95193.12
2018-04-26T04:15:35.288Z,95196.11
2018-04-26T04:18:03.766Z,95194.55
2018-04-26T04:20:31.066Z,95197.44
2018-04-26T04:22:58.213Z,95195.41
2018-04-26T04:25:26.000Z,95197.58
2018-04-26T04:27:52.971Z,95204.06
2018-04-26T04:30:19.899Z,95193.52
2018-04-26T04:32:46.478Z,95191.09
2018-04-26T04:35:14.326Z,95193.11
2018-04-26T04:37:41.968Z,95197.61
2018-04-26T04:40:10.221Z,95196.30
2018-04-26T04:42:38.244Z,95190.34
2018-04-26T04:45:05.495Z,95193.09
2018-04-26T04:47:32.728Z,95195.49
2018-04-26T04:50:00.077Z,95202.53
2018-04-26T04:52:27.833Z,95201.41
2018-04-26T04:54:55.034Z,95195.97
2018-04-26T04:57:22.451Z,95201.38
2018-04-26T04:59:49.466Z,95204.59
2018-04-26T05:02:16.318Z,95212.75
2018-04-26T05:04:44.666Z,95206.66
2018-04-26T05:09:52.790Z,95206.05
2018-04-26T05:12:21.015Z,95208.64
2018-04-26T05:14:47.757Z,95208.67
2018-04-26T05:17:15.256Z,95204.88
2018-04-26T05:19:42.999Z,95198.77
2018-04-26T05:22:09.813Z,95196.56
2018-04-26T05:24:36.844Z,95198.84
2018-04-26T05:27:03.691Z,95197.05
2018-04-26T05:29:30.879Z,95193.22
2018-04-26T05:31:58.143Z,95199.28
2018-04-26T05:34:25.717Z,95201.42
2018-04-26T05:36:52.660Z,95201.13
2018-04-26T05:39:20.478Z,95192.39
2018-04-26T05:41:47.275Z,95184.31
2018-04-26T05:44:14.818Z,95188.91
2018-04-26T05:46:42.187Z,95190.01
2018-04-26T05:49:09.269Z,95185.31
2018-04-26T05:51:36.284Z,95182.67
2018-04-26T05:54:03.681Z,95183.36
2018-04-26T05:56:31.079Z,95178.87
2018-04-26T05:58:58.751Z,95175.69
2018-04-26T06:01:26.152Z,95177.03
2018-04-26T06:03:53.502Z,95174.78
2018-04-26T06:06:20.911Z,95173.97
2018-04-26T06:08:47.503Z,95175.97
2018-04-26T06:11:14.453Z,95177.27
2018-04-26T06:13:41.824Z,95176.78
2018-04-26T06:16:08.848Z,95176.08
2018-04-26T06:18:37.227Z,95170.13
2018-04-26T06:21:04.671Z,95172.05
2018-04-26T06:23:31.507Z,95168.30
2018-04-26T06:25:58.453Z,95170.43
2018-04-26T06:28:25.309Z,95165.50
2018-04-26T06:30:52.429Z,95162.01
2018-04-26T06:33:19.426Z,95161.75
2018-04-26T06:35:46.898Z,95165.39
2018-04-26T06:38:14.264Z,95167.37
2018-04-26T06:40:40.981Z,95162.22
2018-04-26T06:43:08.051Z,95166.08
2018-04-26T06:45:35.176Z,95161.31
2018-04-26T06:48:02.295Z,95156.05
2018-04-26T06:50:29.443Z,95154.92
2018-04-26T06:52:56.135Z,95151.80
2018-04-26T06:55:23.106Z,95156.19
2018-04-26T06:57:50.211Z,95150.38
2018-04-26T07:00:17.253Z,95155.31
2018-04-26T07:02:44.884Z,95151.80
2018-04-26T07:05:13.103Z,95151.84
2018-04-26T07:07:40.464Z,95157.20
2018-04-26T07:10:07.244Z,95153.99
2018-04-26T07:12:34.488Z,95152.02
2018-04-26T07:15:01.275Z,95145.84
2018-04-26T07:17:29.999Z,95143.94
2018-04-26T07:19:57.227Z,95138.69
2018-04-26T07:22:24.312Z,95139.75
2018-04-26T07:24:50.819Z,95142.30
2018-04-26T07:27:18.118Z,95141.30
2018-04-26T07:29:44.943Z,95134.64
2018-04-26T07:32:12.382Z,95138.73
2018-04-26T07:34:39.179Z,95143.41
2018-04-26T07:37:06.813Z,95141.66
2018-04-26T07:39:35.751Z,95138.77
2018-04-26T07:42:02.459Z,95138.24
2018-04-26T07:44:29.405Z,95145.45
2018-04-26T07:46:56.496Z,95136.59
2018-04-26T07:49:23.281Z,95132.87
2018-04-26T07:51:50.404Z,95134.50
2018-04-26T07:54:17.172Z,95136.59
2018-04-26T07:56:44.196Z,95137.45
2018-04-26T07:59:11.302Z,95132.52
2018-04-26T08:01:39.440Z,95134.30
2018-04-26T08:04:06.330Z,95133.80
2018-04-26T08:06:33.501Z,95132.39
2018-04-26T08:09:00.645Z,95131.05
2018-04-26T08:11:27.758Z,95135.02
2018-04-26T08:13:54.675Z,95135.90
2018-04-26T08:16:21.801Z,95134.14
2018-04-26T08:18:49.653Z,95130.06
2018-04-26T08:23:51.476Z,95127.52
2018-04-26T08:26:18.724Z,95119.65
2018-04-26T08:28:45.251Z,95116.75
2018-04-26T08:31:13.040Z,95120.59
2018-04-26T08:33:40.542Z,95114.22
2018-04-26T08:36:07.420Z,95113.27
2018-04-26T08:38:34.887Z,95112.08
2018-04-26T08:41:02.336Z,95107.87
2018-04-26T08:43:29.691Z,95106.98
2018-04-26T08:45:56.867Z,95099.83
2018-04-26T08:48:23.820Z,95100.30
2018-04-26T08:50:50.671Z,95103.81
2018-04-26T08:53:18.833Z,95091.22
2018-04-26T08:55:45.748Z,95084.98
2018-04-26T08:58:12.758Z,95088.58
2018-04-26T09:00:39.737Z,95084.42
2018-04-26T09:03:07.066Z,95078.86
2018-04-26T09:05:34.142Z,95085.80
2018-04-26T09:08:02.485Z,95077.45
2018-04-26T09:10:29.785Z,95081.04
2018-04-26T09:12:57.809Z,95079.42
2018-04-26T09:15:24.311Z,95065.70
2018-04-26T09:17:52.068Z,95062.30
2018-04-26T09:20:19.098Z,95059.93
2018-04-26T09:22:47.064Z,95055.70
2018-04-26T09:25:13.993Z,95052.99
2018-04-26T09:27:40.858Z,95046.77
2018-04-26T09:30:14.676Z,95040.93
2018-04-26T09:32:41.738Z,95038.14
2018-04-26T09:35:09.445Z,95042.27
2018-04-26T09:37:36.785Z,95038.38
2018-04-26T09:40:03.680Z,95027.06
2018-04-26T09:42:38.081Z,95032.09
2018-04-26T09:45:05.230Z,95026.92
2018-04-26T09:47:32.465Z,95023.09
2018-04-26T09:49:59.365Z,95021.94
2018-04-26T09:52:25.920Z,95018.98
2018-04-26T09:54:52.724Z,95019.32
2018-04-26T09:57:20.287Z,95016.51
2018-04-26T09:59:47.665Z,95007.79
2018-04-26T10:02:15.721Z,95003.77
2018-04-26T10:04:49.721Z,95006.00
2018-04-26T10:07:16.786Z,94996.86
2018-04-26T10:09:44.734Z,94995.55
2018-04-26T10:12:12.891Z,94991.06
2018-04-26T10:14:40.468Z,94993.19
2018-04-26T10:17:07.498Z,94984.63
2018-04-26T10:19:34.756Z,94983.92
2018-04-26T10:22:02.653Z,94981.31
2018-04-26T10:24:29.774Z,94972.77
2018-04-26T10:26:58.010Z,94963.63
2018-04-26T10:29:25.185Z,94961.33
2018-04-26T10:31:51.840Z,94958.52
2018-04-26T10:34:18.695Z,94958.69
2018-04-26T10:36:46.184Z,94955.47
2018-04-26T10:39:13.051Z,94945.93
2018-04-26T10:41:40.273Z,94940.11
2018-04-26T10:44:07.247Z,94933.42
2018-04-26T10:46:35.042Z,94934.33
2018-04-26T10:49:01.882Z,94932.66
2018-04-26T10:51:28.875Z,94924.92
2018-04-26T10:53:57.700Z,94925.08
2018-04-26T10:56:24.923Z,94913.52
2018-04-26T10:58:52.758Z,94914.84
2018-04-26T11:01:19.640Z,94904.58
2018-04-26T11:03:46.789Z,94903.86
2018-04-26T11:06:15.471Z,94903.44
2018-04-26T11:08:43.244Z,94901.83
2018-04-26T11:11:10.030Z,94896.03
2018-04-26T11:13:37.661Z,94888.20
2018-04-26T11:16:04.688Z,94885.20
2018-04-26T11:18:32.450Z,94886.63
2018-04-26T11:20:59.898Z,94886.36
2018-04-26T11:23:28.098Z,94883.80
2018-04-26T11:25:55.236Z,94877.34
2018-04-26T11:28:22.534Z,94872.45
2018-04-26T11:30:49.499Z,94866.58
2018-04-26T11:33:16.910Z,94868.32
2018-04-26T11:35:43.869Z,94866.14
2018-04-26T11:38:10.829Z,94869.87
2018-04-26T11:40:38.054Z,94859.80
2018-04-26T11:43:04.724Z,94860.46
2018-04-26T11:45:32.039Z,94856.37
2018-04-26T11:47:58.863Z,94858.32
2018-04-26T11:50:25.780Z,94854.70
2018-04-26T11:52:53.060Z,94851.14
2018-04-26T11:55:20.476Z,94855.41
2018-04-26T11:57:47.276Z,94853.39
2018-04-26T12:00:14.520Z,94853.15
2018-04-26T12:02:41.478Z,94842.20
2018-04-26T12:05:08.297Z,94842.11
2018-04-26T12:07:35.207Z,94844.30
2018-04-26T12:10:02.953Z,94834.25
2018-04-26T12:12:29.796Z,94830.39
2018-04-26T12:14:57.433Z,94828.83
2018-04-26T12:17:24.673Z,94822.69
2018-04-26T12:19:51.558Z,94821.71
2018-04-26T12:22:18.656Z,94818.24
2018-04-26T12:24:45.325Z,94813.61
2018-04-26T12:27:12.458Z,94809.14
2018-04-26T12:29:39.877Z,94802.87
2018-04-26T12:32:07.064Z,94801.67
2018-04-26T12:34:34.651Z,94803.67
2018-04-26T12:37:01.720Z,94795.87
2018-04-26T12:39:29.244Z,94797.44
2018-04-26T12:41:56.128Z,94796.28
2018-04-26T12:44:23.424Z,94790.75
2018-04-26T12:46:51.076Z,94783.94
2018-04-26T12:49:17.862Z,94782.88
2018-04-26T12:51:46.095Z,94777.26
2018-04-26T12:54:13.040Z,94769.73
2018-04-26T12:56:40.343Z,94776.05
2018-04-26T12:59:07.397Z,94770.61
2018-04-26T13:01:35.101Z,94769.67
2018-04-26T13:04:02.092Z,94775.34
2018-04-26T13:06:29.116Z,94778.38
2018-04-26T13:08:56.386Z,94778.16
2018-04-26T13:11:24.290Z,94782.16
2018-04-26T13:13:51.030Z,94787.77
2018-04-26T13:16:18.359Z,94791.69
2018-04-26T13:18:45.114Z,94788.07
2018-04-26T13:21:13.735Z,94783.16
2018-04-26T13:23:41.816Z,94780.14
2018-04-26T13:26:09.709Z,94783.17
2018-04-26T13:28:38.512Z,94787.84
2018-04-26T13:31:05.597Z,94787.84
2018-04-26T13:33:32.508Z,94787.36
2018-04-26T13:35:58.997Z,94786.64
2018-04-26T13:38:26.901Z,94780.76
2018-04-26T13:40:55.201Z,94784.49
2018-04-26T13:43:22.060Z,94787.97
2018-04-26T13:45:49.857Z,94788.48
2018-04-26T13:48:16.778Z,94791.78
2018-04-26T13:50:44.835Z,94786.47
2018-04-26T13:53:11.394Z,94778.94
2018-04-26T13:55:39.367Z,94782.31
2018-04-26T13:58:07.023Z,94785.70
2018-04-26T14:00:34.802Z,94775.81
2018-04-26T14:03:02.244Z,94777.93
2018-04-26T14:05:29.101Z,94772.01
2018-04-26T14:07:56.043Z,94774.25
2018-04-26T14:10:24.109Z,94767.87
2018-04-26T14:12:51.951Z,94773.08
2018-04-26T14:15:20.280Z,94772.98
2018-04-26T14:17:47.463Z,94766.06
2018-04-26T14:20:14.260Z,94770.11
2018-04-26T14:22:41.720Z,94761.42
2018-04-26T14:25:08.922Z,94769.11
2018-04-26T14:27:36.297Z,94773.13
2018-04-26T14:30:03.760Z,94779.44
2018-04-26T14:32:30.517Z,94780.11
2018-04-26T14:34:57.712Z,94783.58
2018-04-26T14:37:24.729Z,94780.08
2018-04-26T14:39:51.820Z,94789.59
2018-04-26T14:42:18.764Z,94772.87
2018-04-26T14:44:45.850Z,94771.31
2018-04-26T14:47:12.742Z,94770.80
2018-04-26T14:49:40.889Z,94768.34
2018-04-26T14:52:08.349Z,94776.80
2018-04-26T14:54:35.136Z,94768.64
2018-04-26T14:57:01.951Z,94771.63
2018-04-26T14:59:29.548Z,94767.47
2018-04-26T15:01:56.041Z,94771.93
2018-04-26T15:04:23.177Z,94764.95
2018-04-26T15:06:50.973Z,94770.66
2018-04-26T15:09:17.643Z,94768.80
2018-04-26T15:11:45.711Z,94767.73
2018-04-26T15:14:14.124Z,94759.03
2018-04-26T15:16:42.144Z,94766.39
2018-04-26T15:19:09.626Z,94760.69
2018-04-26T15:21:36.679Z,94758.82
2018-04-26T15:24:03.833Z,94761.62
2018-04-26T15:26:30.908Z,94758.42
2018-04-26T15:28:58.458Z,94756.91
2018-04-26T15:31:25.687Z,94761.17
2018-04-26T15:33:52.534Z,94754.01
2018-04-26T15:36:19.740Z,94754.36
2018-04-26T15:38:46.982Z,94747.95
2018-04-26T15:41:14.850Z,94751.64
2018-04-26T15:43:42.944Z,94747.28
2018-04-26T15:46:10.552Z,94749.55
2018-04-26T15:48:37.673Z,94757.20
2018-04-26T15:51:04.312Z,94755.20
2018-04-26T15:53:43.456Z,94762.63
2018-04-26T15:56:36.157Z,94761.03
2018-04-26T15:59:15.842Z,94759.25
2018-04-26T16:02:19.510Z,94762.34
2018-04-26T16:04:58.436Z,94758.53
2018-04-26T16:07:54.220Z,94762.94
2018-04-26T16:10:40.003Z,94763.20
2018-04-26T16:16:42.128Z,94767.09
2018-04-26T16:19:34.116Z,94777.92
2018-04-26T16:25:19.097Z,94777.36
2018-04-26T16:27:58.273Z,94775.61
2018-04-26T16:30:38.633Z,94780.26
2018-04-26T16:33:17.319Z,94788.13
2018-04-26T16:39:07.929Z,94785.64
2018-04-26T16:41:34.693Z,94783.91
2018-04-26T16:44:01.293Z,94780.98
2018-04-26T16:46:28.083Z,94778.66
2018-04-26T16:48:55.161Z,94787.06
2018-04-26T16:51:22.286Z,94786.64
2018-04-26T16:53:48.946Z,94785.45
2018-04-26T16:56:17.604Z,94786.20
2018-04-26T16:58:44.714Z,94790.31
2018-04-26T17:01:11.575Z,94797.48
2018-04-26T17:03:40.337Z,94795.80
2018-04-26T17:06:08.804Z,94797.67
2018-04-26T17:08:36.263Z,94793.78
2018-04-26T17:11:03.410Z,94798.39
2018-04-26T17:13:31.603Z,94801.20
2018-04-26T17:15:58.883Z,94801.84
2018-04-26T17:18:25.756Z,94805.54
2018-04-26T17:20:54.502Z,94809.12
2018-04-26T17:23:22.137Z,94813.58
2018-04-26T17:25:50.282Z,94814.94
2018-04-26T17:28:17.996Z,94818.59
2018-04-26T17:30:46.162Z,94825.25
2018-04-26T17:33:13.978Z,94825.83
2018-04-26T17:35:41.733Z,94819.61
2018-04-26T17:38:08.702Z,94828.98
2018-04-26T17:40:36.718Z,94829.43
2018-04-26T17:43:05.197Z,94833.32
2018-04-26T17:45:33.905Z,94837.86
2018-04-26T17:48:00.904Z,94848.21
2018-04-26T17:50:28.301Z,94846.91
2018-04-26T17:52:55.453Z,94850.17
2018-04-26T17:55:22.672Z,94844.97
2018-04-26T17:57:50.541Z,94848.77
2018-04-26T18:00:17.513Z,94844.48
2018-04-26T18:02:44.524Z,94852.78
2018-04-26T18:05:12.314Z,94855.78
2018-04-26T18:10:19.921Z,94856.30
2018-04-26T18:12:48.590Z,94850.23
2018-04-26T18:15:15.991Z,94857.58
2018-04-26T18:24:05.184Z,94856.06
2018-04-26T18:26:32.315Z,94858.58
2018-04-26T18:28:59.675Z,94863.06
2018-04-26T18:31:26.929Z,94863.89
2018-04-26T18:33:54.764Z,94867.09
2018-04-26T18:36:22.218Z,94869.55
2018-04-26T18:38:48.867Z,94869.45
2018-04-26T18:41:17.522Z,94869.10
2018-04-26T18:43:45.189Z,94874.73
2018-04-26T18:46:12.191Z,94873.83
2018-04-26T18:48:39.566Z,94869.05
2018-04-26T18:51:07.538Z,94875.95
2018-04-26T18:53:38.166Z,94879.87
2018-04-26T18:56:05.958Z,94883.17
2018-04-26T18:58:33.181Z,94880.53
2018-04-26T19:01:01.946Z,94884.77
2018-04-26T19:03:29.684Z,94883.54
2018-04-26T19:05:56.728Z,94890.70
2018-04-26T19:08:24.591Z,94895.61
2018-04-26T19:10:53.458Z,94897.27
2018-04-26T19:13:21.622Z,94899.80
2018-04-26T19:15:49.063Z,94905.13
2018-04-26T19:18:16.122Z,94911.30
2018-04-26T19:20:43.164Z,94910.51
2018-04-26T19:23:11.137Z,94920.29
2018-04-26T19:25:38.593Z,94920.57
2018-04-26T19:28:06.566Z,94915.94
2018-04-26T19:30:47.087Z,94919.64
2018-04-26T19:35:48.816Z,94913.34
2018-04-26T19:38:16.286Z,94912.80
2018-04-26T19:40:43.363Z,94912.88
2018-04-26T19:43:10.232Z,94917.92
2018-04-26T19:45:38.073Z,94923.92
2018-04-26T19:48:05.419Z,94921.83
2018-04-26T19:50:32.528Z,94923.69
2018-04-26T19:53:01.577Z,94923.13
2018-04-26T19:55:30.122Z,94921.91
2018-04-26T19:57:58.727Z,94915.88
2018-04-26T20:00:26.900Z,94914.71
2018-04-26T20:02:53.765Z,94920.87
2018-04-26T20:05:22.129Z,94914.02
2018-04-26T20:07:48.975Z,94923.84
2018-04-26T20:10:16.225Z,94927.91
2018-04-26T20:12:43.313Z,94923.28
2018-04-26T20:15:10.810Z,94924.21
2018-04-26T20:17:37.853Z,94927.52
2018-04-26T20:20:04.961Z,94928.59
2018-04-26T20:22:33.359Z,94928.04
2018-04-26T20:25:01.111Z,94926.91
2018-04-26T20:27:30.236Z,94929.41
2018-04-26T20:29:58.060Z,94937.41
2018-04-26T20:32:26.585Z,94942.38
2018-04-26T20:34:53.871Z,94941.89
2018-04-26T20:37:21.520Z,94943.98
2018-04-26T20:39:50.147Z,94948.22
2018-04-26T20:42:18.410Z,94955.23
2018-04-26T20:44:48.925Z,94962.16
2018-04-26T20:47:17.082Z,94950.99
2018-04-26T20:49:44.685Z,94947.34
2018-04-26T20:52:12.447Z,94946.16
2018-04-26T20:54:39.755Z,94951.70
2018-04-26T20:57:07.981Z,94947.78
2018-04-26T20:59:35.159Z,94948.41
2018-04-26T21:02:02.382Z,94949.77
2018-04-26T21:04:29.899Z,94945.94
2018-04-26T21:06:57.548Z,94944.52
2018-04-26T21:09:25.110Z,94937.55
2018-04-26T21:11:52.598Z,94938.32
2018-04-26T21:14:19.744Z,94933.76
2018-04-26T21:16:47.430Z,94929.66
2018-04-26T21:19:15.058Z,94927.64
2018-04-26T21:21:43.014Z,94932.33
2018-04-26T21:24:11.661Z,94924.39
2018-04-26T21:26:38.881Z,94923.08
2018-04-26T21:29:06.706Z,94920.31
2018-04-26T21:31:34.521Z,94925.98
2018-04-26T21:34:03.630Z,94927.05
2018-04-26T21:36:31.872Z,94931.43
2018-04-26T21:38:58.829Z,94933.14
2018-04-26T21:41:25.785Z,94939.08
2018-04-26T21:43:53.240Z,94942.03
2018-04-26T21:46:20.548Z,94946.11
2018-04-26T21:48:48.536Z,94946.32
2018-04-26T21:51:21.967Z,94939.89
2018-04-26T21:53:55.862Z,94937.19
2018-04-26T21:56:29.814Z,94937.10
2018-04-26T21:59:04.343Z,94940.61
2018-04-26T22:01:37.746Z,94942.45
2018-04-26T22:07:08.111Z,94935.92
2018-04-26T22:09:37.302Z,94934.25
2018-04-26T22:12:04.714Z,94941.22
2018-04-26T22:14:32.110Z,94945.71
2018-04-26T22:16:59.365Z,94946.61
2018-04-26T22:19:27.113Z,94944.44
2018-04-26T22:21:55.005Z,94949.76
2018-04-26T22:24:23.161Z,94949.11
2018-04-26T22:26:50.168Z,94946.61
2018-04-26T22:29:17.845Z,94949.20
2018-04-26T22:31:45.961Z,94951.75
2018-04-26T22:34:13.227Z,94951.55
2018-04-26T22:36:41.025Z,94956.19
2018-04-26T22:39:10.488Z,94956.17
2018-04-26T22:41:37.988Z,94955.55
2018-04-26T22:44:05.097Z,94953.69
2018-04-26T22:46:32.429Z,94961.42
2018-04-26T22:48:59.549Z,94959.47
2018-04-26T22:51:28.837Z,94958.48
2018-04-26T22:53:57.057Z,94963.92
2018-04-26T22:56:23.995Z,94960.86
2018-04-26T22:58:51.186Z,94961.78
2018-04-26T23:01:18.671Z,94963.41
2018-04-26T23:03:45.689Z,94953.61
2018-04-26T23:06:13.302Z,94956.50
2018-04-26T23:08:40.613Z,94956.40
2018-04-26T23:11:07.734Z,94958.17
2018-04-26T23:13:35.256Z,94961.50
2018-04-26T23:16:03.025Z,94963.75
2018-04-26T23:18:31.918Z,94954.91
2018-04-26T23:21:00.263Z,94949.78
2018-04-26T23:23:27.435Z,94951.33
2018-04-26T23:25:56.102Z,94947.87
2018-04-26T23:28:27.702Z,94952.66
2018-04-26T23:30:55.246Z,94949.75
2018-04-26T23:33:23.148Z,94950.05
2018-04-26T23:35:50.105Z,94945.05
2018-04-26T23:38:17.612Z,94944.54
2018-04-26T23:40:44.809Z,94942.22
2018-04-26T23:43:11.833Z,94941.53
2018-04-26T23:45:39.024Z,94942.22
2018-04-26T23:48:06.035Z,94940.78
2018-04-26T23:50:34.283Z,94947.11
2018-04-26T23:53:01.310Z,94948.21
2018-04-26T23:55:32.078Z,94945.35
2018-04-26T23:57:59.540Z,94943.73
